Time;durP1;ratioP1;P1;durP2;ratioP2;P2;SDS_P1;SDS_P2;PMS_P1;PMS_P2;Temp;Humidity;BMP_temperature;BMP_pressure;BME280_temperature;BME280_humidity;BME280_pressure;Samples;Min_cycle;Max_cycle;Signal;HPM_P1;HPM_P2
2024/04/26 00:04:14;;;;;;;14.9;8.2;;;;;;;1.49;84.71;98083.333333333;;;;
2024/04/26 00:15:13;;;;;;;14.9;8.2;;;;;;;1.42;84.6;98088.333333333;;;;
2024/04/26 00:26:14;;;;;;;14.9;8.2;;;;;;;1.4;84.49;98086.666666667;;;;
2024/04/26 00:37:13;;;;;;;18.6;9.4;;;;;;;1.27;86.25;98085;;;;
2024/04/26 00:48:14;;;;;;;18.6;9.4;;;;;;;1.3;85.35;98088.333333333;;;;
2024/04/26 00:58:14;;;;;;;18.6;9.4;;;;;;;1.31;85.35;98098.333333333;;;;
2024/04/26 01:09:14;;;;;;;9.7;5.6;;;;;;;1.2;85.1;98103.333333333;;;;
2024/04/26 01:19:13;;;;;;;9.7;5.6;;;;;;;1.06;85.58;98105;;;;
2024/04/26 01:30:16;;;;;;;9.7;5.6;;;;;;;0.97;85.04;98103.333333333;;;;
2024/04/26 01:41:13;;;;;;;10.3;6.3;;;;;;;0.81;84.62;98110;;;;
2024/04/26 01:51:13;;;;;;;10.3;6.3;;;;;;;0.6;86.17;98113.333333333;;;;
2024/04/26 02:01:16;;;;;;;10.3;6.3;;;;;;;0.56;85.76;98113.333333333;;;;
2024/04/26 02:11:13;;;;;;;9.6;5.6;;;;;;;0.39;86.01;98125;;;;
2024/04/26 02:22:14;;;;;;;9.6;5.6;;;;;;;0.37;85.62;98141.666666667;;;;
2024/04/26 02:33:13;;;;;;;9.6;5.6;;;;;;;0.21;86.43;98141.666666667;;;;
2024/04/26 02:43:14;;;;;;;12.3;6.1;;;;;;;0.22;86.46;98146.666666667;;;;
2024/04/26 02:53:14;;;;;;;12.3;6.1;;;;;;;0.24;87.23;98156.666666667;;;;
2024/04/26 03:04:13;;;;;;;14;9;;;;;;;0.32;87.84;98153.333333333;;;;
2024/04/26 03:14:14;;;;;;;14;9;;;;;;;0.26;88.4;98156.666666667;;;;
2024/04/26 03:24:14;;;;;;;14;9;;;;;;;0.24;87.75;98165;;;;
2024/04/26 03:35:14;;;;;;;11.4;7;;;;;;;0.13;87.79;98170;;;;
2024/04/26 03:46:13;;;;;;;11.4;7;;;;;;;0.18;89.03;98173.333333333;;;;
2024/04/26 03:56:14;;;;;;;11.4;7;;;;;;;0.49;88.86;98181.666666667;;;;
2024/04/26 04:06:14;;;;;;;14;9.1;;;;;;;0.66;88.34;98183.333333333;;;;
2024/04/26 04:17:15;;;;;;;14;9.1;;;;;;;0.75;88.46;98195;;;;
2024/04/26 04:27:14;;;;;;;14;9.1;;;;;;;1.15;88.98;98200;;;;
2024/04/26 04:38:14;;;;;;;14.5;9.2;;;;;;;1.63;88.98;98196.666666667;;;;
2024/04/26 04:48:14;;;;;;;14.5;9.2;;;;;;;2.08;88.65;98196.666666667;;;;
2024/04/26 04:59:15;;;;;;;14.5;9.2;;;;;;;2.6;88.48;98213.333333333;;;;
2024/04/26 05:10:14;;;;;;;19.9;11.1;;;;;;;3.23;87.78;98220;;;;
2024/04/26 05:21:13;;;;;;;19.9;11.1;;;;;;;3.79;85.64;98230;;;;
2024/04/26 05:31:14;;;;;;;19.9;11.1;;;;;;;4.32;84.65;98238.333333333;;;;
2024/04/26 05:41:14;;;;;;;17.7;11.5;;;;;;;4.84;83.16;98245;;;;
2024/04/26 05:52:14;;;;;;;17.7;11.5;;;;;;;5.36;81.09;98248.333333333;;;;
2024/04/26 06:02:14;;;;;;;17.7;11.5;;;;;;;5.89;80.21;98255;;;;
2024/04/26 06:32:14;;;;;;;;;;;;;;;8.09;76.3;98275;;;;
2024/04/26 06:42:13;;;;;;;19.6;14.1;;;;;;;8.9;68.19;98273.333333333;;;;
2024/04/26 06:52:13;;;;;;;19.6;14.1;;;;;;;9.5;62.03;98278.333333333;;;;
2024/04/26 07:02:15;;;;;;;19.6;14.1;;;;;;;9.98;60.05;98278.333333333;;;;
2024/04/26 07:12:13;;;;;;;4.3;2.2;;;;;;;10.5;59.32;98280;;;;
2024/04/26 07:22:13;;;;;;;4.3;2.2;;;;;;;10.83;52.58;98280;;;;
2024/04/26 07:32:13;;;;;;;4.3;2.2;;;;;;;11.13;51.32;98280;;;;
2024/04/26 07:42:13;;;;;;;3;1.3;;;;;;;11.59;52.71;98278.333333333;;;;
2024/04/26 07:53:13;;;;;;;3;1.3;;;;;;;12.21;47.67;98275;;;;
2024/04/26 08:03:13;;;;;;;2.4;1.5;;;;;;;12.26;46.12;98273.333333333;;;;
2024/04/26 08:14:13;;;;;;;2.4;1.5;;;;;;;12.08;46.37;98271.666666667;;;;
2024/04/26 08:24:13;;;;;;;2.4;1.5;;;;;;;12.57;47.89;98271.666666667;;;;
2024/04/26 08:34:13;;;;;;;3.4;1.4;;;;;;;13.3;41.09;98261.666666667;;;;
2024/04/26 08:45:13;;;;;;;3.4;1.4;;;;;;;14.07;43.16;98260;;;;
2024/04/26 08:56:13;;;;;;;3.4;1.4;;;;;;;14.04;39.28;98261.666666667;;;;
2024/04/26 09:06:14;;;;;;;2.5;1.2;;;;;;;13.77;42.7;98263.333333333;;;;
2024/04/26 09:16:13;;;;;;;2.5;1.2;;;;;;;13.91;38.37;98263.333333333;;;;
2024/04/26 09:27:13;;;;;;;2.5;1.2;;;;;;;14.03;43.02;98255;;;;
2024/04/26 09:38:13;;;;;;;3;1.4;;;;;;;13.82;38.92;98255;;;;
2024/04/26 09:49:13;;;;;;;3;1.4;;;;;;;14.16;40.71;98250;;;;
2024/04/26 10:00:13;;;;;;;3;1.4;;;;;;;15.25;40.69;98246.666666667;;;;
2024/04/26 10:10:14;;;;;;;2.8;1.1;;;;;;;15.3;39.18;98243.333333333;;;;
2024/04/26 10:21:13;;;;;;;2.8;1.1;;;;;;;15.4;39.84;98241.666666667;;;;
2024/04/26 10:32:13;;;;;;;2.8;1.1;;;;;;;15.35;40.68;98243.333333333;;;;
2024/04/26 10:43:13;;;;;;;4;1.4;;;;;;;15.39;40.42;98243.333333333;;;;
2024/04/26 10:54:13;;;;;;;4;1.4;;;;;;;15.71;40.35;98245;;;;
2024/04/26 11:05:13;;;;;;;3.3;1.2;;;;;;;16.09;42.78;98241.666666667;;;;
2024/04/26 11:15:13;;;;;;;3.3;1.2;;;;;;;16.87;43.78;98236.666666667;;;;
2024/04/26 11:25:13;;;;;;;3.3;1.2;;;;;;;17.11;43.11;98233.333333333;;;;
2024/04/26 11:35:14;;;;;;;2.6;1.3;;;;;;;17.31;38.49;98231.666666667;;;;
2024/04/26 11:46:14;;;;;;;2.6;1.3;;;;;;;17.88;40.32;98228.333333333;;;;
2024/04/26 11:57:13;;;;;;;2.6;1.3;;;;;;;17.24;39.55;98225;;;;
2024/04/26 12:07:14;;;;;;;4.1;1.5;;;;;;;17.23;43;98225;;;;
2024/04/26 12:17:13;;;;;;;4.1;1.5;;;;;;;17.12;38.93;98221.666666667;;;;
2024/04/26 12:28:13;;;;;;;4.1;1.5;;;;;;;17.47;39.55;98220;;;;
2024/04/26 12:38:14;;;;;;;1.9;1;;;;;;;16.72;39.31;98220;;;;
2024/04/26 12:49:15;;;;;;;1.9;1;;;;;;;16.92;40.73;98220;;;;
2024/04/26 13:00:13;;;;;;;1.9;1;;;;;;;17.27;41.64;98221.666666667;;;;
2024/04/26 13:10:15;;;;;;;3.3;1.3;;;;;;;16.9;40.24;98225;;;;
2024/04/26 13:20:14;;;;;;;3.3;1.3;;;;;;;17.34;38.78;98225;;;;
2024/04/26 13:31:13;;;;;;;3.3;1.3;;;;;;;17.48;35.63;98216.666666667;;;;
2024/04/26 13:41:14;;;;;;;2.7;1;;;;;;;16.64;38.12;98221.666666667;;;;
2024/04/26 13:51:13;;;;;;;2.7;1;;;;;;;17.3;35.75;98215;;;;
2024/04/26 14:02:13;;;;;;;2.7;1;;;;;;;16.83;35.85;98213.333333333;;;;
2024/04/26 14:12:14;;;;;;;2.6;1.4;;;;;;;16.11;35.99;98218.333333333;;;;
2024/04/26 14:23:13;;;;;;;2.6;1.4;;;;;;;16.43;39.74;98218.333333333;;;;
2024/04/26 14:33:14;;;;;;;2.3;1;;;;;;;17.57;41.6;98218.333333333;;;;
2024/04/26 14:43:14;;;;;;;2.3;1;;;;;;;17.55;37.94;98213.333333333;;;;
2024/04/26 14:53:14;;;;;;;2.3;1;;;;;;;17.31;36.08;98215;;;;
2024/04/26 15:04:14;;;;;;;3.5;1.6;;;;;;;18.42;40.61;98206.666666667;;;;
2024/04/26 15:15:14;;;;;;;3.5;1.6;;;;;;;20.06;33.41;98203.333333333;;;;
2024/04/26 15:25:13;;;;;;;3.5;1.6;;;;;;;21.5;31.86;98203.333333333;;;;
2024/04/26 15:36:13;;;;;;;2.7;1.2;;;;;;;20.45;30.84;98201.666666667;;;;
2024/04/26 15:47:16;;;;;;;2.7;1.2;;;;;;;18.11;35.36;98208.333333333;;;;
2024/04/26 15:58:13;;;;;;;2.7;1.2;;;;;;;15.93;39.26;98216.666666667;;;;
2024/04/26 16:08:13;;;;;;;4.2;2.6;;;;;;;15.47;41.52;98216.666666667;;;;
2024/04/26 16:19:14;;;;;;;4.2;2.6;;;;;;;15.29;42.96;98218.333333333;;;;
2024/04/26 16:30:14;;;;;;;4.2;2.6;;;;;;;15.38;42.11;98218.333333333;;;;
2024/04/26 16:41:14;;;;;;;15;10.4;;;;;;;15.08;44;98221.666666667;;;;
2024/04/26 16:52:15;;;;;;;15;10.4;;;;;;;14.63;44.71;98228.333333333;;;;
2024/04/26 17:02:14;;;;;;;15;10.4;;;;;;;14.52;47.21;98233.333333333;;;;
2024/04/26 17:12:14;;;;;;;5.6;2.5;;;;;;;14.24;46.82;98236.666666667;;;;
2024/04/26 17:22:14;;;;;;;5.6;2.5;;;;;;;13.61;49.65;98253.333333333;;;;
2024/04/26 17:33:13;;;;;;;6.7;4;;;;;;;13.1;49.7;98251.666666667;;;;
2024/04/26 17:43:14;;;;;;;6.7;4;;;;;;;12.38;50.46;98255;;;;
2024/04/26 17:54:14;;;;;;;6.7;4;;;;;;;11.54;51.74;98265;;;;
2024/04/26 18:04:14;;;;;;;7.6;4;;;;;;;10.89;54.66;98278.333333333;;;;
2024/04/26 18:15:14;;;;;;;7.6;4;;;;;;;10.43;57.17;98295;;;;
2024/04/26 18:26:14;;;;;;;7.6;4;;;;;;;10.04;56.91;98308.333333333;;;;
2024/04/26 18:36:14;;;;;;;7.3;3.6;;;;;;;9.6;58.03;98316.666666667;;;;
2024/04/26 18:46:14;;;;;;;7.3;3.6;;;;;;;9.34;60.33;98323.333333333;;;;
2024/04/26 18:56:14;;;;;;;7.3;3.6;;;;;;;9.1;61.97;98335;;;;
2024/04/26 19:06:14;;;;;;;18;10;;;;;;;8.97;62.07;98335;;;;
2024/04/26 19:17:14;;;;;;;18;10;;;;;;;8.7;63.49;98341.666666667;;;;
2024/04/26 19:28:14;;;;;;;18;10;;;;;;;8.39;63.42;98345;;;;
2024/04/26 19:38:17;;;;;;;30.6;15.7;;;;;;;8.3;63.62;98355;;;;
2024/04/26 19:48:14;;;;;;;30.6;15.7;;;;;;;8.23;64.65;98361.666666667;;;;
2024/04/26 19:59:14;;;;;;;30.6;15.7;;;;;;;8.11;65.07;98360;;;;
2024/04/26 20:09:14;;;;;;;9.1;3.9;;;;;;;8;65.64;98361.666666667;;;;
2024/04/26 20:20:14;;;;;;;9.1;3.9;;;;;;;7.86;66.43;98363.333333333;;;;
2024/04/26 20:31:14;;;;;;;9.1;3.9;;;;;;;7.73;67.38;98370;;;;
2024/04/26 20:42:14;;;;;;;7.7;3.1;;;;;;;7.58;66.7;98368.333333333;;;;
2024/04/26 20:52:14;;;;;;;7.7;3.1;;;;;;;7.4;67.61;98376.666666667;;;;
2024/04/26 21:02:14;;;;;;;7.7;3.1;;;;;;;7.4;68.25;98378.333333333;;;;
2024/04/26 21:13:14;;;;;;;9.4;4.1;;;;;;;7.39;68.97;98383.333333333;;;;
2024/04/26 21:23:14;;;;;;;9.4;4.1;;;;;;;7.18;69.27;98390;;;;
2024/04/26 21:34:14;;;;;;;9;5.3;;;;;;;6.88;69.51;98393.333333333;;;;
2024/04/26 21:44:14;;;;;;;9;5.3;;;;;;;6.54;70.48;98403.333333333;;;;
2024/04/26 21:55:14;;;;;;;9;5.3;;;;;;;6.18;72.57;98408.333333333;;;;
2024/04/26 22:05:14;;;;;;;14.8;7.7;;;;;;;5.95;73.35;98415;;;;
2024/04/26 22:16:14;;;;;;;14.8;7.7;;;;;;;5.62;77.53;98418.333333333;;;;
2024/04/26 22:27:14;;;;;;;14.8;7.7;;;;;;;5.5;77.34;98423.333333333;;;;
2024/04/26 22:38:14;;;;;;;16.6;9.8;;;;;;;5.33;79.6;98421.666666667;;;;
2024/04/26 22:49:14;;;;;;;16.6;9.8;;;;;;;5.32;80.5;98425;;;;
2024/04/26 22:59:14;;;;;;;16.6;9.8;;;;;;;5.31;79.98;98428.333333333;;;;
2024/04/26 23:10:14;;;;;;;15;8.9;;;;;;;5.41;80.16;98435;;;;
2024/04/26 23:20:14;;;;;;;15;8.9;;;;;;;5.42;80.18;98435;;;;
2024/04/26 23:31:14;;;;;;;15;8.9;;;;;;;5.58;80.64;98441.666666667;;;;
2024/04/26 23:42:14;;;;;;;16.6;8.4;;;;;;;5.86;80.21;98438.333333333;;;;
2024/04/26 23:53:14;;;;;;;16.6;8.4;;;;;;;5.95;81.2;98438.333333333;;;;
